Time;durP1;ratioP1;P1;durP2;ratioP2;P2;SDS_P1;SDS_P2;PMS_P1;PMS_P2;Temp;Humidity;BMP_temperature;BMP_pressure;BME280_temperature;BME280_humidity;BME280_pressure;Samples;Min_cycle;Max_cycle;Signal;HPM_P1;HPM_P2
2023/02/01 00:17:54;;;;;;;4.00;3.10;;;;;;;1.84;93.51;97774.53;435244;1255;96277;-39
2023/02/01 00:28:01;;;;;;;2.90;2.20;;;;;;;1.62;93.51;97781.46;435153;1255;109733;-39
2023/02/01 00:38:08;;;;;;;3.20;1.90;;;;;;;1.50;93.92;97793.79;435283;1256;108469;-39
2023/02/01 00:48:15;;;;;;;4.20;2.10;;;;;;;1.51;94.06;97784.58;435276;1256;95676;-40
2023/02/01 01:08:29;;;;;;;11.60;2.00;;;;;;;1.60;94.32;97803.01;435436;1255;107225;-39
2023/02/01 01:18:37;;;;;;;5.20;2.10;;;;;;;1.60;94.40;97828.30;435350;1255;96137;-39
2023/02/01 01:28:44;;;;;;;6.80;1.60;;;;;;;1.64;94.42;97855.06;435207;1255;109477;-39
2023/02/01 01:38:52;;;;;;;9.40;1.90;;;;;;;1.65;94.31;97857.00;435298;1256;107431;-38
2023/02/01 01:49:02;;;;;;;14.80;2.40;;;;;;;1.65;94.32;97869.58;435423;1256;95436;-39
2023/02/01 01:59:10;;;;;;;7.60;1.40;;;;;;;1.59;94.16;97876.77;435442;1256;108532;-39
2023/02/01 02:09:18;;;;;;;9.20;1.60;;;;;;;1.52;93.97;97872.12;435950;1251;106589;-39
2023/02/01 02:20:11;;;;;;;9.20;1.50;;;;;;;1.51;93.93;97867.66;435000;1258;96194;-39
2023/02/01 02:30:46;;;;;;;9.60;1.50;;;;;;;1.58;93.93;97874.31;433218;1264;107459;-38
2023/02/01 02:41:03;;;;;;;9.40;1.30;;;;;;;1.62;93.78;97882.67;433282;1271;95789;-39
2023/02/01 03:22:39;;;;;;;11.50;1.80;;;;;;;1.65;93.39;97881.34;435281;1256;109130;-39
2023/02/01 03:43:19;;;;;;;6.70;1.50;;;;;;;1.67;93.31;97895.69;435257;1256;95634;-39
2023/02/01 03:53:29;;;;;;;8.70;2.20;;;;;;;1.68;93.21;97894.08;435262;1264;108338;-39
2023/02/01 04:03:37;;;;;;;10.80;2.10;;;;;;;1.71;93.11;97897.10;435289;1254;106748;-40
2023/02/01 04:13:44;;;;;;;8.60;2.30;;;;;;;1.73;92.97;97891.14;435270;1263;95256;-40
2023/02/01 04:33:58;;;;;;;11.50;3.60;;;;;;;1.70;92.75;97901.10;435335;1256;108597;-39
2023/02/01 04:44:06;;;;;;;6.50;2.00;;;;;;;1.48;92.75;97897.73;435238;1265;107383;-39
2023/02/01 04:54:13;;;;;;;6.50;2.30;;;;;;;1.37;92.51;97893.33;435230;1264;95904;-39
2023/02/01 05:04:20;;;;;;;10.10;1.90;;;;;;;1.36;92.57;97880.81;435198;1265;110339;-39
2023/02/01 05:14:27;;;;;;;14.40;2.20;;;;;;;1.30;92.56;97886.23;435191;1256;107258;-39
2023/02/01 05:24:35;;;;;;;6.00;2.10;;;;;;;1.37;92.86;97879.13;435048;1267;95901;-39
2023/02/01 05:34:42;;;;;;;7.20;2.10;;;;;;;1.41;92.79;97861.77;435140;1266;110143;-43
2023/02/01 05:44:49;;;;;;;13.20;2.20;;;;;;;1.35;92.55;97861.85;435101;1257;108444;-39
2023/02/01 05:54:56;;;;;;;15.90;2.50;;;;;;;1.37;92.61;97868.43;435234;1257;95271;-41
2023/02/01 06:05:04;;;;;;;13.10;3.00;;;;;;;1.49;92.60;97867.92;435173;1257;96130;-39
2023/02/01 06:15:12;;;;;;;14.00;3.40;;;;;;;1.59;92.38;97871.92;435196;1254;110001;-40
2023/02/01 06:25:19;;;;;;;13.40;2.50;;;;;;;1.70;92.23;97865.07;435152;1257;108027;-43
2023/02/01 06:35:26;;;;;;;10.90;3.40;;;;;;;1.81;91.89;97871.13;435218;1254;95604;-39
2023/02/01 06:45:30;;;;;;;18.80;4.20;;;;;;;1.87;91.70;97875.35;435293;1257;109000;-39
2023/02/01 06:55:38;;;;;;;17.00;3.90;;;;;;;1.90;91.49;97868.85;435242;1256;108858;-41
2023/02/01 07:05:45;;;;;;;11.30;3.00;;;;;;;2.01;91.17;97862.89;435240;1258;108345;-40
2023/02/01 07:15:53;;;;;;;17.20;5.50;;;;;;;2.14;91.02;97857.86;435204;1255;95667;-39
2023/02/01 07:26:05;;;;;;;13.10;4.40;;;;;;;2.23;90.63;97854.92;435313;1257;110024;-40
2023/02/01 07:36:11;;;;;;;12.50;5.60;;;;;;;2.29;90.30;97866.34;435224;1258;108395;-39
2023/02/01 07:46:18;;;;;;;16.70;3.80;;;;;;;2.34;89.82;97873.64;435222;1253;106752;-38
2023/02/01 07:56:26;;;;;;;17.00;4.50;;;;;;;2.39;89.49;97868.73;435292;1257;96368;-40
2023/02/01 08:16:41;;;;;;;13.10;4.40;;;;;;;2.52;88.75;97866.92;435257;1258;106765;-39
2023/02/01 08:26:49;;;;;;;9.60;4.00;;;;;;;2.81;88.82;97879.56;435218;1257;98011;-38
2023/02/01 08:36:59;;;;;;;13.00;3.80;;;;;;;2.86;88.16;97888.73;435187;1254;109623;-40
2023/02/01 08:47:07;;;;;;;15.60;5.10;;;;;;;2.79;88.37;97892.73;435220;1258;107764;-38
2023/02/01 08:57:14;;;;;;;19.20;8.10;;;;;;;2.58;88.42;97884.81;435247;1257;97475;-39
2023/02/01 09:07:22;;;;;;;20.00;6.20;;;;;;;2.33;88.85;97881.36;435198;1257;109442;-39
2023/02/01 09:17:30;;;;;;;14.60;4.80;;;;;;;2.36;89.01;97866.84;435289;1252;108348;-39
2023/02/01 09:27:38;;;;;;;12.30;6.00;;;;;;;2.49;89.03;97858.56;435214;1257;97864;-38
2023/02/01 09:37:45;;;;;;;12.20;4.50;;;;;;;2.70;89.27;97855.13;435279;1253;111131;-40
2023/02/01 09:47:54;;;;;;;15.80;4.20;;;;;;;3.03;89.22;97839.54;435058;1256;106983;-40
2023/02/01 09:58:03;;;;;;;14.50;5.30;;;;;;;3.10;89.12;97836.28;435247;1256;97506;-39
2023/02/01 10:08:09;;;;;;;13.70;4.30;;;;;;;3.07;88.68;97825.75;435266;1258;110364;-40
2023/02/01 10:18:24;;;;;;;11.70;3.80;;;;;;;3.17;88.50;97823.75;435246;1258;106503;-40
2023/02/01 10:28:38;;;;;;;20.60;5.40;;;;;;;3.33;88.35;97812.90;435120;1252;97770;-39
2023/02/01 10:38:46;;;;;;;14.00;4.80;;;;;;;3.56;88.15;97809.34;435217;1256;110620;-38
2023/02/01 10:48:53;;;;;;;10.00;3.90;;;;;;;3.80;87.73;97802.20;435221;1256;106278;-40
2023/02/01 10:59:01;;;;;;;17.90;6.40;;;;;;;3.98;87.47;97800.42;435244;1253;97888;-39
2023/02/01 11:09:12;;;;;;;15.20;6.20;;;;;;;4.04;86.66;97786.73;435255;1255;109637;-39
2023/02/01 11:19:21;;;;;;;9.90;3.50;;;;;;;4.02;86.05;97782.84;435198;1255;106961;-40
2023/02/01 11:29:31;;;;;;;10.90;3.00;;;;;;;3.80;85.77;97785.86;435103;1252;96638;-40
2023/02/01 11:39:38;;;;;;;11.20;4.60;;;;;;;3.46;86.25;97787.92;435249;1256;109990;-40
2023/02/01 11:49:44;;;;;;;11.30;4.10;;;;;;;3.18;86.77;97783.31;435285;1253;109429;-42
2023/02/01 12:00:00;;;;;;;13.10;5.00;;;;;;;3.33;87.25;97772.23;435114;1255;97403;-39
2023/02/01 12:10:08;;;;;;;13.80;4.60;;;;;;;3.57;87.52;97761.40;435169;1257;111712;-40
2023/02/01 12:20:23;;;;;;;12.90;5.50;;;;;;;3.64;87.68;97745.93;435169;1253;106675;-40
2023/02/01 12:30:55;;;;;;;6.80;4.20;;;;;;;3.46;87.67;97733.41;435235;1255;97895;-40
2023/02/01 12:41:06;;;;;;;9.70;3.80;;;;;;;3.31;87.77;97720.95;435125;1254;110027;-40
2023/02/01 12:51:18;;;;;;;7.90;4.00;;;;;;;3.22;87.98;97710.59;435135;1259;107890;-40
2023/02/01 13:01:23;;;;;;;13.80;6.40;;;;;;;3.18;88.14;97697.15;435250;1253;97936;-40
2023/02/01 13:11:34;;;;;;;14.60;6.00;;;;;;;3.20;88.42;97687.14;435166;1256;107976;-39
2023/02/01 13:21:39;;;;;;;10.60;6.00;;;;;;;3.10;88.42;97688.48;435239;1255;96628;-40
2023/02/01 13:31:57;;;;;;;10.70;5.60;;;;;;;3.04;88.42;97691.31;435237;1255;97871;-39
2023/02/01 13:42:06;;;;;;;19.80;8.30;;;;;;;2.89;88.40;97699.14;435250;1255;107208;-40
2023/02/01 13:52:29;;;;;;;11.60;6.30;;;;;;;2.55;88.31;97710.08;435337;1256;97903;-40
2023/02/01 14:13:24;;;;;;;22.20;10.30;;;;;;;2.12;88.55;97706.75;435663;1255;107949;-40
2023/02/01 14:23:33;;;;;;;13.20;7.10;;;;;;;1.90;88.73;97706.75;436492;1252;97502;-40
2023/02/01 14:33:44;;;;;;;25.50;14.90;;;;;;;1.67;89.00;97702.51;435540;1250;109368;-41
2023/02/01 14:43:52;;;;;;;13.60;8.40;;;;;;;1.53;89.23;97702.45;435463;1254;108741;-40
2023/02/01 14:54:00;;;;;;;6.50;4.20;;;;;;;1.45;89.73;97700.83;435312;1253;97752;-40
2023/02/01 15:04:06;;;;;;;7.90;5.30;;;;;;;1.49;90.33;97705.49;435365;1250;108227;-40
2023/02/01 15:14:15;;;;;;;4.60;2.90;;;;;;;1.56;90.82;97714.17;435513;1254;106805;-41
2023/02/01 15:24:20;;;;;;;8.40;4.80;;;;;;;1.64;91.05;97734.16;435477;1250;96623;-40
2023/02/01 15:34:48;;;;;;;21.20;10.00;;;;;;;1.73;91.19;97741.06;435091;1251;365613;-39
2023/02/01 15:44:56;;;;;;;;;;;;;;;1.82;91.33;97750.30;435304;1254;97899;-40
2023/02/01 15:55:06;;;;;;;23.00;13.20;;;;;;;1.89;91.61;97752.94;435468;1254;110764;-40
2023/02/01 16:05:29;;;;;;;15.20;9.50;;;;;;;1.96;91.74;97761.23;435350;1250;108020;-39
2023/02/01 16:15:37;;;;;;;16.90;10.80;;;;;;;2.06;91.71;97766.39;435515;1256;96642;-39
2023/02/01 16:25:44;;;;;;;27.10;15.30;;;;;;;2.02;91.89;97770.84;435354;1254;107918;-40
2023/02/01 16:35:53;;;;;;;28.30;16.60;;;;;;;1.90;91.95;97775.20;435400;1255;97874;-39
2023/02/01 16:56:16;;;;;;;11.00;6.40;;;;;;;1.90;92.24;97788.27;435416;1254;107686;-39
2023/02/01 17:06:27;;;;;;;12.10;7.30;;;;;;;1.99;92.31;97787.63;435355;1250;97464;-39
2023/02/01 17:16:34;;;;;;;19.80;8.40;;;;;;;2.03;92.42;97788.12;436424;1254;109406;-40
2023/02/01 17:26:43;;;;;;;15.50;6.80;;;;;;;2.04;92.50;97787.16;435369;1250;108677;-38
2023/02/01 17:36:51;;;;;;;13.90;6.80;;;;;;;2.08;92.62;97779.14;435464;1254;97878;-39
2023/02/01 17:57:11;;;;;;;22.10;11.40;;;;;;;1.95;92.58;97773.46;435535;1254;97864;-40
2023/02/01 18:07:18;;;;;;;12.50;7.30;;;;;;;1.86;92.60;97764.76;435573;1254;97900;-40
2023/02/01 18:17:25;;;;;;;10.80;6.70;;;;;;;1.86;92.61;97757.66;435422;1254;110742;-38
2023/02/01 18:27:31;;;;;;;7.80;4.90;;;;;;;1.91;92.62;97746.97;435491;1253;109405;-39
2023/02/01 18:37:39;;;;;;;21.80;7.50;;;;;;;1.95;92.67;97731.83;435530;1255;97864;-40
2023/02/01 18:47:46;;;;;;;11.10;5.30;;;;;;;2.06;92.81;97723.55;435449;1254;108010;-40
2023/02/01 18:57:54;;;;;;;17.70;8.10;;;;;;;2.13;92.94;97713.55;435405;1264;97522;-38
2023/02/01 19:18:08;;;;;;;21.70;8.60;;;;;;;2.10;92.98;97699.23;435426;1254;109403;-40
2023/02/01 19:28:16;;;;;;;20.40;10.20;;;;;;;2.10;92.82;97694.54;435437;1250;107830;-41
2023/02/01 19:38:24;;;;;;;16.50;6.80;;;;;;;2.06;92.80;97681.62;435515;1253;97890;-41
2023/02/01 19:48:33;;;;;;;17.10;8.90;;;;;;;1.91;92.72;97677.59;435452;1254;107617;-39
2023/02/01 19:58:40;;;;;;;23.50;11.20;;;;;;;1.78;92.90;97666.65;435403;1256;97896;-38
2023/02/01 20:18:57;;;;;;;20.90;10.10;;;;;;;1.63;92.93;97648.33;435430;1250;109148;-39
2023/02/01 20:29:04;;;;;;;19.10;9.50;;;;;;;1.69;92.81;97650.36;435498;1254;109216;-40
2023/02/01 20:39:12;;;;;;;15.60;8.00;;;;;;;1.74;92.84;97637.46;435543;1250;96632;-41
2023/02/01 20:49:19;;;;;;;15.90;7.30;;;;;;;1.80;93.00;97618.30;435551;1254;106056;-40
2023/02/01 20:59:26;;;;;;;24.60;10.60;;;;;;;1.71;92.89;97603.57;435345;1254;96635;-39
2023/02/01 21:09:33;;;;;;;20.20;10.20;;;;;;;1.50;92.82;97587.54;435358;1254;96632;-40
2023/02/01 21:19:43;;;;;;;22.10;12.00;;;;;;;1.43;92.85;97574.19;435410;1255;108832;-40
2023/02/01 21:29:49;;;;;;;22.90;12.00;;;;;;;1.42;92.85;97568.04;435546;1250;107633;-39
2023/02/01 21:39:57;;;;;;;24.70;10.00;;;;;;;1.45;92.81;97563.41;435417;1256;97868;-42
2023/02/01 21:50:04;;;;;;;15.50;8.60;;;;;;;1.49;93.02;97553.95;435395;1255;108680;-39
2023/02/01 22:00:13;;;;;;;27.00;15.60;;;;;;;1.49;93.14;97549.22;435669;1256;96623;-39
2023/02/01 22:10:18;;;;;;;18.90;11.50;;;;;;;1.40;93.26;97535.86;435651;1253;97854;-40
2023/02/01 22:20:27;;;;;;;14.70;8.40;;;;;;;1.41;93.28;97535.22;435482;1256;97230;-39
2023/02/01 22:30:33;;;;;;;10.00;5.70;;;;;;;1.50;93.18;97547.02;435372;1250;107419;-39
2023/02/01 22:40:41;;;;;;;10.70;5.80;;;;;;;1.63;93.47;97556.97;435499;1250;97890;-40
2023/02/01 23:00:54;;;;;;;10.70;5.50;;;;;;;1.76;93.79;97574.31;435385;1250;97866;-39
2023/02/01 23:11:01;;;;;;;7.40;4.20;;;;;;;1.67;93.57;97581.23;435299;1255;112100;-38
2023/02/01 23:21:11;;;;;;;5.40;3.50;;;;;;;1.52;93.65;97591.91;435545;1259;107178;-39
2023/02/01 23:31:18;;;;;;;2.30;2.10;;;;;;;1.33;93.88;97601.67;435500;1254;97893;-39
2023/02/01 23:51:33;;;;;;;2.20;1.50;;;;;;;1.14;94.16;97611.30;435421;1254;107744;-39
